createdAt,value
2023-05-23T00:01:07.486Z,18.00
2023-05-23T00:03:35.476Z,17.90
2023-05-23T00:06:02.604Z,17.90
2023-05-23T00:08:29.447Z,17.80
2023-05-23T00:10:56.416Z,17.80
2023-05-23T00:13:23.508Z,17.80
2023-05-23T00:15:50.603Z,17.80
2023-05-23T00:18:17.568Z,17.70
2023-05-23T00:20:45.712Z,17.70
2023-05-23T00:23:19.485Z,17.80
2023-05-23T00:25:52.804Z,17.70
2023-05-23T00:28:20.811Z,17.70
2023-05-23T00:30:49.489Z,17.70
2023-05-23T00:33:17.348Z,17.70
2023-05-23T00:35:44.562Z,17.70
2023-05-23T00:38:11.598Z,17.70
2023-05-23T00:40:38.949Z,17.70
2023-05-23T00:43:05.902Z,17.80
2023-05-23T00:45:32.786Z,17.80
2023-05-23T00:48:02.291Z,17.90
2023-05-23T00:50:29.869Z,17.80
2023-05-23T00:52:58.984Z,17.90
2023-05-23T00:55:25.879Z,17.90
2023-05-23T00:57:57.224Z,17.90
2023-05-23T01:00:25.579Z,17.90
2023-05-23T01:02:53.665Z,17.90
2023-05-23T01:05:24.873Z,17.90
2023-05-23T01:07:52.654Z,17.90
2023-05-23T01:10:25.810Z,17.90
2023-05-23T01:13:20.577Z,17.80
2023-05-23T01:16:03.561Z,17.80
2023-05-23T01:18:38.405Z,17.80
2023-05-23T01:21:14.923Z,17.80
2023-05-23T01:23:44.760Z,17.80
2023-05-23T01:26:30.542Z,17.80
2023-05-23T01:29:10.061Z,17.80
2023-05-23T01:31:45.117Z,17.80
2023-05-23T01:34:19.131Z,17.80
2023-05-23T01:36:46.672Z,17.70
2023-05-23T01:39:13.545Z,17.70
2023-05-23T01:41:40.911Z,17.80
2023-05-23T01:44:07.981Z,17.80
2023-05-23T01:46:39.294Z,17.80
2023-05-23T01:49:09.379Z,17.70
2023-05-23T01:51:36.934Z,17.70
2023-05-23T01:54:04.199Z,17.70
2023-05-23T01:56:31.165Z,17.70
2023-05-23T01:58:58.119Z,17.70
2023-05-23T02:01:25.313Z,17.70
2023-05-23T02:03:52.353Z,17.80
2023-05-23T02:06:19.315Z,17.70
2023-05-23T02:08:47.362Z,17.70
2023-05-23T02:11:14.693Z,17.80
2023-05-23T02:13:41.519Z,17.70
2023-05-23T02:16:08.522Z,17.70
2023-05-23T02:18:38.276Z,17.70
2023-05-23T02:21:08.553Z,17.60
2023-05-23T02:23:37.799Z,17.60
2023-05-23T02:26:04.717Z,17.60
2023-05-23T02:28:31.542Z,17.50
2023-05-23T02:30:58.429Z,17.50
2023-05-23T02:33:26.068Z,17.40
2023-05-23T02:35:55.495Z,17.40
2023-05-23T02:38:22.444Z,17.40
2023-05-23T02:40:51.750Z,17.40
2023-05-23T02:43:18.726Z,17.30
2023-05-23T02:45:45.784Z,17.30
2023-05-23T02:48:12.717Z,17.20
2023-05-23T02:50:39.695Z,17.20
2023-05-23T02:53:06.552Z,17.10
2023-05-23T02:55:33.691Z,17.10
2023-05-23T02:58:01.137Z,17.00
2023-05-23T03:00:27.959Z,17.00
2023-05-23T03:02:57.548Z,16.90
2023-05-23T03:05:24.455Z,16.90
2023-05-23T03:07:52.414Z,16.80
2023-05-23T03:10:21.295Z,16.80
2023-05-23T03:12:48.391Z,16.70
2023-05-23T03:15:17.126Z,16.70
2023-05-23T03:17:45.208Z,16.70
2023-05-23T03:20:12.103Z,16.70
2023-05-23T03:22:39.153Z,16.70
2023-05-23T03:25:06.665Z,16.80
2023-05-23T03:27:33.586Z,16.70
2023-05-23T03:30:00.494Z,16.70
2023-05-23T03:32:27.934Z,16.70
2023-05-23T03:34:54.814Z,16.70
2023-05-23T03:37:21.644Z,16.70
2023-05-23T03:39:48.365Z,16.70
2023-05-23T03:42:15.354Z,16.70
2023-05-23T03:44:42.248Z,16.70
2023-05-23T03:47:09.489Z,16.60
2023-05-23T03:49:39.393Z,16.70
2023-05-23T03:52:06.106Z,16.60
2023-05-23T03:54:33.674Z,16.60
2023-05-23T03:57:00.498Z,16.50
2023-05-23T03:59:27.677Z,16.50
2023-05-23T04:01:55.524Z,16.40
2023-05-23T04:04:22.910Z,16.40
2023-05-23T04:06:49.830Z,16.40
2023-05-23T04:09:17.030Z,16.30
2023-05-23T04:11:47.393Z,16.30
2023-05-23T04:14:14.619Z,16.40
2023-05-23T04:16:42.415Z,16.40
2023-05-23T04:19:09.693Z,16.50
2023-05-23T04:21:36.554Z,16.50
2023-05-23T04:24:09.104Z,16.50
2023-05-23T04:26:36.689Z,16.60
2023-05-23T04:29:06.147Z,16.70
2023-05-23T04:31:34.276Z,16.70
2023-05-23T04:34:02.528Z,16.80
2023-05-23T04:36:30.349Z,16.80
2023-05-23T04:38:57.734Z,16.70
2023-05-23T04:41:24.691Z,16.80
2023-05-23T04:44:06.167Z,16.80
2023-05-23T04:46:53.400Z,16.80
2023-05-23T04:49:23.732Z,16.90
2023-05-23T04:51:51.303Z,17.00
2023-05-23T04:54:28.704Z,16.90
2023-05-23T04:57:02.451Z,17.00
2023-05-23T04:59:30.245Z,16.90
2023-05-23T05:01:57.104Z,17.00
2023-05-23T05:04:25.662Z,16.90
2023-05-23T05:06:53.427Z,16.90
2023-05-23T05:09:22.002Z,16.90
2023-05-23T05:11:51.129Z,16.90
2023-05-23T05:14:19.727Z,16.80
2023-05-23T05:16:47.888Z,16.80
2023-05-23T05:19:16.218Z,16.80
2023-05-23T05:21:43.158Z,16.80
2023-05-23T05:24:10.948Z,16.90
2023-05-23T05:26:37.831Z,16.90
2023-05-23T05:29:06.021Z,17.00
2023-05-23T05:31:33.488Z,17.00
2023-05-23T05:34:00.629Z,17.20
2023-05-23T05:36:27.667Z,17.30
2023-05-23T05:38:55.105Z,17.50
2023-05-23T05:41:22.353Z,17.60
2023-05-23T05:43:51.348Z,17.80
2023-05-23T05:46:18.679Z,18.10
2023-05-23T05:48:46.696Z,18.40
2023-05-23T05:51:14.392Z,18.60
2023-05-23T05:53:42.347Z,18.70
2023-05-23T05:56:09.374Z,18.60
2023-05-23T05:58:36.867Z,18.40
2023-05-23T06:01:07.807Z,18.40
2023-05-23T06:03:34.949Z,18.40
2023-05-23T06:06:02.105Z,18.30
2023-05-23T06:08:30.045Z,18.10
2023-05-23T06:10:57.139Z,18.10
2023-05-23T06:13:25.668Z,18.20
2023-05-23T06:15:54.000Z,18.30
2023-05-23T06:18:21.070Z,18.40
2023-05-23T06:20:48.997Z,18.50
2023-05-23T06:23:17.308Z,18.50
2023-05-23T06:25:46.268Z,18.60
2023-05-23T06:28:13.340Z,18.70
2023-05-23T06:30:42.120Z,18.70
2023-05-23T06:33:09.326Z,18.60
2023-05-23T06:35:36.279Z,18.50
2023-05-23T06:38:03.214Z,18.60
2023-05-23T06:40:30.117Z,18.60
2023-05-23T06:42:57.023Z,18.60
2023-05-23T06:45:32.089Z,18.50
2023-05-23T06:48:01.283Z,18.70
2023-05-23T06:50:28.456Z,18.60
2023-05-23T06:52:56.363Z,18.60
2023-05-23T06:55:24.025Z,18.60
2023-05-23T06:57:52.237Z,18.70
2023-05-23T07:00:21.281Z,18.80
2023-05-23T07:03:03.723Z,18.90
2023-05-23T07:05:33.297Z,19.10
2023-05-23T07:08:00.308Z,19.00
2023-05-23T07:10:27.506Z,19.10
2023-05-23T07:13:00.151Z,19.00
2023-05-23T07:15:28.653Z,19.10
2023-05-23T07:18:15.835Z,19.00
2023-05-23T07:20:42.993Z,19.10
2023-05-23T07:23:17.196Z,19.30
2023-05-23T07:26:00.598Z,19.40
2023-05-23T07:28:35.470Z,19.60
2023-05-23T07:31:02.743Z,19.70
2023-05-23T07:33:30.837Z,19.80
2023-05-23T07:36:01.640Z,19.80
2023-05-23T07:38:28.508Z,19.90
2023-05-23T07:41:03.175Z,20.00
2023-05-23T07:43:38.351Z,20.00
2023-05-23T07:46:05.623Z,20.00
2023-05-23T07:48:32.600Z,20.40
2023-05-23T07:50:59.858Z,20.40
2023-05-23T07:53:26.727Z,20.60
2023-05-23T07:55:53.996Z,20.90
2023-05-23T07:58:23.250Z,21.20
2023-05-23T08:00:52.497Z,21.50
2023-05-23T08:03:39.797Z,21.70
2023-05-23T08:06:13.068Z,21.50
2023-05-23T08:08:39.998Z,21.10
2023-05-23T08:11:08.559Z,21.20
2023-05-23T08:13:42.178Z,21.20
2023-05-23T08:16:29.044Z,21.30
2023-05-23T08:18:56.303Z,21.30
2023-05-23T08:21:24.511Z,21.20
2023-05-23T08:23:52.219Z,21.20
2023-05-23T08:26:19.269Z,21.20
2023-05-23T08:28:47.755Z,20.90
2023-05-23T08:31:14.935Z,20.90
2023-05-23T08:33:42.522Z,21.10
2023-05-23T08:36:09.534Z,21.20
2023-05-23T08:38:36.807Z,21.30
2023-05-23T08:41:20.072Z,21.50
2023-05-23T08:43:49.748Z,21.60
2023-05-23T08:46:23.951Z,21.80
2023-05-23T08:48:55.365Z,22.10
2023-05-23T08:51:26.771Z,22.30
2023-05-23T08:53:56.456Z,22.30
2023-05-23T08:56:28.385Z,22.00
2023-05-23T08:58:56.845Z,21.90
2023-05-23T09:01:26.312Z,22.20
2023-05-23T09:03:56.517Z,22.90
2023-05-23T09:06:35.917Z,24.20
2023-05-23T09:09:04.300Z,24.90
2023-05-23T09:11:36.151Z,24.90
2023-05-23T09:14:08.236Z,25.50
2023-05-23T09:16:35.836Z,25.60
2023-05-23T09:19:15.479Z,25.30
2023-05-23T09:21:50.590Z,25.10
2023-05-23T09:24:22.540Z,24.80
2023-05-23T09:26:50.058Z,24.20
2023-05-23T09:29:20.846Z,23.60
2023-05-23T09:31:48.423Z,23.10
2023-05-23T09:34:15.314Z,22.50
2023-05-23T09:36:44.219Z,22.00
2023-05-23T09:39:12.444Z,21.50
2023-05-23T09:41:39.981Z,21.10
2023-05-23T09:44:09.373Z,21.00
2023-05-23T09:46:38.383Z,20.70
2023-05-23T09:49:18.640Z,20.60
2023-05-23T09:52:00.840Z,20.50
2023-05-23T09:54:27.818Z,20.30
2023-05-23T09:56:57.660Z,20.50
2023-05-23T09:59:29.135Z,20.80
2023-05-23T10:01:57.878Z,21.20
2023-05-23T10:04:26.000Z,21.40
2023-05-23T10:07:01.923Z,22.00
2023-05-23T10:09:36.246Z,22.50
2023-05-23T10:12:21.208Z,22.90
2023-05-23T10:14:55.099Z,23.40
2023-05-23T10:17:40.138Z,23.50
2023-05-23T10:20:12.384Z,23.70
2023-05-23T10:22:40.104Z,24.50
2023-05-23T10:25:08.922Z,24.80
2023-05-23T10:27:49.070Z,24.50
2023-05-23T10:30:16.223Z,24.10
2023-05-23T10:32:43.821Z,23.70
2023-05-23T10:35:40.634Z,23.30
2023-05-23T10:38:35.038Z,23.10
2023-05-23T10:41:08.002Z,23.10
2023-05-23T10:43:40.383Z,22.90
2023-05-23T10:46:13.169Z,22.40
2023-05-23T10:48:45.066Z,22.30
2023-05-23T10:51:14.611Z,22.00
2023-05-23T10:53:46.776Z,22.00
2023-05-23T10:56:24.205Z,22.00
2023-05-23T10:58:55.647Z,22.10
2023-05-23T11:01:23.779Z,22.30
2023-05-23T11:03:55.328Z,22.20
2023-05-23T11:06:43.513Z,22.50
2023-05-23T11:09:22.081Z,23.30
2023-05-23T11:11:54.869Z,24.10
2023-05-23T11:14:33.427Z,24.80
2023-05-23T11:17:01.982Z,25.10
2023-05-23T11:19:29.950Z,25.10
2023-05-23T11:22:05.931Z,25.80
2023-05-23T11:24:53.373Z,26.20
2023-05-23T11:27:47.664Z,26.20
2023-05-23T11:30:17.212Z,25.30
2023-05-23T11:32:56.059Z,24.30
2023-05-23T11:35:23.426Z,23.70
2023-05-23T11:37:50.417Z,23.60
2023-05-23T11:40:36.584Z,23.40
2023-05-23T11:43:08.695Z,23.40
2023-05-23T11:45:37.141Z,23.40
2023-05-23T11:48:15.084Z,23.50
2023-05-23T11:50:54.246Z,23.30
2023-05-23T11:53:25.130Z,23.30
2023-05-23T11:55:58.706Z,23.40
2023-05-23T11:58:39.481Z,23.60
2023-05-23T12:01:10.764Z,24.10
2023-05-23T12:03:48.837Z,24.50
2023-05-23T12:06:19.185Z,25.10
2023-05-23T12:08:47.844Z,25.40
2023-05-23T12:11:14.975Z,25.30
2023-05-23T12:13:42.409Z,25.10
2023-05-23T12:16:09.594Z,25.10
2023-05-23T12:18:38.139Z,26.10
2023-05-23T12:21:08.280Z,27.40
2023-05-23T12:23:36.108Z,28.70
2023-05-23T12:26:07.411Z,29.80
2023-05-23T12:28:39.759Z,29.80
2023-05-23T12:31:15.810Z,30.40
2023-05-23T12:33:44.500Z,31.20
2023-05-23T12:36:15.597Z,30.30
2023-05-23T12:38:45.348Z,29.20
2023-05-23T12:41:15.884Z,28.00
2023-05-23T12:43:53.215Z,26.80
2023-05-23T12:46:21.296Z,25.60
2023-05-23T12:48:48.289Z,24.80
2023-05-23T12:51:15.821Z,23.90
2023-05-23T12:53:42.687Z,23.60
2023-05-23T12:56:09.622Z,23.20
2023-05-23T12:58:36.544Z,22.90
2023-05-23T13:01:03.888Z,22.60
2023-05-23T13:03:31.745Z,22.40
2023-05-23T13:05:59.381Z,22.10
2023-05-23T13:08:29.642Z,22.00
2023-05-23T13:10:57.193Z,21.80
2023-05-23T13:13:24.218Z,21.80
2023-05-23T13:15:51.601Z,21.70
2023-05-23T13:18:18.936Z,21.50
2023-05-23T13:20:46.760Z,21.50
2023-05-23T13:23:14.189Z,21.80
2023-05-23T13:25:41.654Z,22.10
2023-05-23T13:28:08.942Z,22.30
2023-05-23T13:30:35.860Z,22.70
2023-05-23T13:33:02.871Z,23.20
2023-05-23T13:35:29.812Z,23.40
2023-05-23T13:37:56.773Z,23.60
2023-05-23T13:40:23.794Z,24.00
2023-05-23T13:42:51.577Z,24.60
2023-05-23T13:45:19.443Z,24.80
2023-05-23T13:47:46.642Z,24.70
2023-05-23T13:50:13.625Z,24.90
2023-05-23T13:52:44.165Z,24.90
2023-05-23T13:55:12.804Z,24.90
2023-05-23T13:57:39.808Z,25.20
2023-05-23T14:00:08.947Z,25.50
2023-05-23T14:02:36.050Z,26.00
2023-05-23T14:05:03.369Z,26.10
2023-05-23T14:07:30.917Z,27.80
2023-05-23T14:09:58.587Z,28.80
2023-05-23T14:12:26.224Z,29.90
2023-05-23T14:14:54.440Z,29.50
2023-05-23T14:17:21.413Z,29.10
2023-05-23T14:19:48.850Z,28.50
2023-05-23T14:22:15.861Z,27.90
2023-05-23T14:24:42.716Z,27.10
2023-05-23T14:27:11.318Z,26.20
2023-05-23T14:29:38.842Z,25.50
2023-05-23T14:32:06.157Z,25.10
2023-05-23T14:34:33.060Z,25.10
2023-05-23T14:37:00.803Z,24.60
2023-05-23T14:39:28.922Z,24.40
2023-05-23T14:41:55.713Z,24.30
2023-05-23T14:44:22.764Z,23.80
2023-05-23T14:46:50.311Z,23.50
2023-05-23T14:49:18.080Z,23.20
2023-05-23T14:51:50.293Z,22.90
2023-05-23T14:54:18.551Z,22.50
2023-05-23T14:56:45.530Z,22.30
2023-05-23T14:59:12.452Z,22.30
2023-05-23T15:01:40.738Z,22.20
2023-05-23T15:04:09.285Z,22.10
2023-05-23T15:06:36.427Z,22.20
2023-05-23T15:09:03.273Z,22.30
2023-05-23T15:11:32.070Z,22.40
2023-05-23T15:13:59.762Z,22.70
2023-05-23T15:16:27.302Z,23.70
2023-05-23T15:18:54.178Z,25.20
2023-05-23T15:21:21.024Z,25.30
2023-05-23T15:23:47.826Z,24.90
2023-05-23T15:26:15.082Z,24.60
2023-05-23T15:28:42.102Z,24.90
2023-05-23T15:31:09.197Z,24.90
2023-05-23T15:33:36.104Z,24.80
2023-05-23T15:36:04.059Z,25.20
2023-05-23T15:38:30.856Z,25.30
2023-05-23T15:40:59.283Z,25.90
2023-05-23T15:43:26.153Z,26.00
2023-05-23T15:45:53.162Z,25.10
2023-05-23T15:48:20.150Z,24.60
2023-05-23T15:50:47.101Z,24.40
2023-05-23T15:53:13.926Z,23.90
2023-05-23T15:55:42.708Z,23.40
2023-05-23T15:58:11.123Z,23.30
2023-05-23T16:00:37.994Z,23.00
2023-05-23T16:03:04.969Z,22.60
2023-05-23T16:05:31.976Z,22.50
2023-05-23T16:07:58.838Z,22.40
2023-05-23T16:10:25.852Z,22.30
2023-05-23T16:12:52.802Z,22.20
2023-05-23T16:15:19.738Z,22.30
2023-05-23T16:17:46.664Z,22.40
2023-05-23T16:20:13.558Z,22.20
2023-05-23T16:22:42.439Z,22.10
2023-05-23T16:25:10.972Z,22.00
2023-05-23T16:27:37.985Z,22.10
2023-05-23T16:30:06.295Z,21.90
2023-05-23T16:32:34.930Z,21.70
2023-05-23T16:35:01.918Z,21.80
2023-05-23T16:37:28.779Z,21.70
2023-05-23T16:39:56.227Z,21.60
2023-05-23T16:42:26.104Z,21.30
2023-05-23T16:44:53.424Z,21.30
2023-05-23T16:47:20.541Z,21.40
2023-05-23T16:49:47.448Z,21.40
2023-05-23T16:52:14.579Z,21.40
2023-05-23T16:54:41.488Z,21.40
2023-05-23T16:57:08.528Z,21.20
2023-05-23T16:59:35.422Z,21.30
2023-05-23T17:02:03.045Z,21.40
2023-05-23T17:04:30.097Z,21.70
2023-05-23T17:06:57.072Z,21.70
2023-05-23T17:09:23.958Z,21.60
2023-05-23T17:11:52.347Z,21.40
2023-05-23T17:14:19.374Z,21.20
2023-05-23T17:16:46.153Z,21.10
2023-05-23T17:19:13.172Z,21.00
2023-05-23T17:21:40.036Z,21.00
2023-05-23T17:24:06.934Z,21.00
2023-05-23T17:26:33.934Z,20.80
2023-05-23T17:29:01.230Z,20.70
2023-05-23T17:31:30.587Z,20.60
2023-05-23T17:33:57.862Z,20.10
2023-05-23T17:36:25.180Z,19.90
2023-05-23T17:38:54.890Z,19.80
2023-05-23T17:41:24.659Z,19.80
2023-05-23T17:43:51.673Z,19.60
2023-05-23T17:46:18.600Z,19.40
2023-05-23T17:48:47.943Z,19.30
2023-05-23T17:51:15.810Z,19.20
2023-05-23T17:53:43.317Z,19.20
2023-05-23T17:56:10.334Z,19.20
2023-05-23T17:58:39.220Z,19.20
2023-05-23T18:01:07.577Z,18.90
2023-05-23T18:03:34.488Z,18.90
2023-05-23T18:06:01.345Z,19.00
2023-05-23T18:08:28.246Z,18.90
2023-05-23T18:10:55.405Z,18.80
2023-05-23T18:13:22.426Z,18.60
2023-05-23T18:15:49.415Z,18.40
2023-05-23T18:18:18.235Z,18.20
2023-05-23T18:20:45.559Z,18.00
2023-05-23T18:23:12.609Z,17.90
2023-05-23T18:25:39.451Z,17.70
2023-05-23T18:28:06.398Z,17.50
2023-05-23T18:30:33.680Z,17.40
2023-05-23T18:33:01.017Z,17.20
2023-05-23T18:35:28.241Z,17.20
2023-05-23T18:37:55.227Z,17.10
2023-05-23T18:40:23.913Z,17.00
2023-05-23T18:42:50.988Z,17.00
2023-05-23T18:45:17.922Z,16.90
2023-05-23T18:47:45.205Z,16.80
2023-05-23T18:50:13.288Z,16.70
2023-05-23T18:52:40.520Z,16.50
2023-05-23T18:55:08.232Z,16.40
2023-05-23T18:57:35.312Z,16.40
2023-05-23T19:00:03.623Z,16.40
2023-05-23T19:02:30.861Z,16.20
2023-05-23T19:04:57.729Z,16.30
2023-05-23T19:07:24.527Z,16.20
2023-05-23T19:09:51.397Z,16.10
2023-05-23T19:12:19.637Z,16.00
2023-05-23T19:14:46.596Z,15.90
2023-05-23T19:17:13.590Z,15.90
2023-05-23T19:19:40.511Z,15.80
2023-05-23T19:22:07.497Z,15.80
2023-05-23T19:24:34.322Z,15.70
2023-05-23T19:27:02.278Z,15.60
2023-05-23T19:29:29.124Z,15.50
2023-05-23T19:31:58.032Z,15.40
2023-05-23T19:34:25.241Z,15.30
2023-05-23T19:36:52.121Z,15.30
2023-05-23T19:39:19.285Z,15.20
2023-05-23T19:41:46.083Z,15.10
2023-05-23T19:44:13.257Z,15.00
2023-05-23T19:46:40.104Z,15.00
2023-05-23T19:49:08.153Z,14.90
2023-05-23T19:51:36.638Z,14.80
2023-05-23T19:54:03.670Z,14.70
2023-05-23T19:56:30.723Z,14.70
2023-05-23T19:58:57.490Z,14.60
2023-05-23T20:01:24.457Z,14.60
2023-05-23T20:03:51.565Z,14.50
2023-05-23T20:06:18.865Z,14.50
2023-05-23T20:08:47.073Z,14.50
2023-05-23T20:11:14.079Z,14.40
2023-05-23T20:13:41.200Z,14.40
2023-05-23T20:16:08.357Z,14.30
2023-05-23T20:18:35.238Z,14.20
2023-05-23T20:21:04.245Z,14.10
2023-05-23T20:23:31.703Z,14.10
2023-05-23T20:25:58.520Z,14.00
2023-05-23T20:28:25.300Z,14.00
2023-05-23T20:30:52.252Z,13.90
2023-05-23T20:33:20.227Z,13.90
2023-05-23T20:35:48.451Z,13.80
2023-05-23T20:38:18.585Z,13.70
2023-05-23T20:40:49.573Z,13.70
2023-05-23T20:43:19.654Z,13.60
2023-05-23T20:45:46.524Z,13.60
2023-05-23T20:48:13.363Z,13.60
2023-05-23T20:50:40.622Z,13.50
2023-05-23T20:53:07.594Z,13.50
2023-05-23T20:55:37.999Z,13.50
2023-05-23T20:58:04.931Z,13.60
2023-05-23T21:00:34.709Z,13.60
2023-05-23T21:03:02.057Z,13.60
2023-05-23T21:05:30.477Z,13.60
2023-05-23T21:07:57.304Z,13.60
2023-05-23T21:10:24.100Z,13.60
2023-05-23T21:12:51.643Z,13.60
2023-05-23T21:15:18.866Z,13.70
2023-05-23T21:17:46.551Z,13.70
2023-05-23T21:20:13.919Z,13.80
2023-05-23T21:22:40.994Z,13.90
2023-05-23T21:25:08.290Z,14.00
2023-05-23T21:27:35.152Z,14.10
2023-05-23T21:30:02.227Z,14.20
2023-05-23T21:32:29.282Z,14.20
2023-05-23T21:34:56.343Z,14.30
2023-05-23T21:37:23.252Z,14.40
2023-05-23T21:39:52.324Z,14.40
2023-05-23T21:42:20.352Z,14.30
2023-05-23T21:44:47.418Z,14.30
2023-05-23T21:47:14.306Z,14.30
2023-05-23T21:49:41.272Z,14.30
2023-05-23T21:52:08.288Z,14.20
2023-05-23T21:54:35.180Z,14.20
2023-05-23T21:57:02.072Z,14.20
2023-05-23T21:59:29.085Z,14.10
2023-05-23T22:02:00.479Z,14.10
2023-05-23T22:04:35.112Z,14.00
2023-05-23T22:07:02.082Z,14.00
2023-05-23T22:09:29.796Z,13.90
2023-05-23T22:11:57.827Z,13.80
2023-05-23T22:14:24.667Z,13.80
2023-05-23T22:16:52.030Z,13.70
2023-05-23T22:19:20.142Z,13.70
2023-05-23T22:21:48.892Z,13.70
2023-05-23T22:24:15.684Z,13.70
2023-05-23T22:26:42.515Z,13.60
2023-05-23T22:29:09.418Z,13.50
2023-05-23T22:31:37.236Z,13.50
2023-05-23T22:34:05.158Z,13.40
2023-05-23T22:36:36.659Z,13.40
2023-05-23T22:39:08.143Z,13.40
2023-05-23T22:41:36.254Z,13.30
2023-05-23T22:44:03.762Z,13.30
2023-05-23T22:46:31.501Z,13.20
2023-05-23T22:49:00.627Z,13.20
2023-05-23T22:51:32.961Z,13.20
2023-05-23T22:54:00.680Z,13.10
2023-05-23T22:56:28.599Z,13.00
2023-05-23T22:58:58.785Z,13.00
2023-05-23T23:01:27.023Z,12.90
2023-05-23T23:03:56.544Z,12.90
2023-05-23T23:06:27.012Z,12.80
2023-05-23T23:08:57.122Z,12.70
2023-05-23T23:11:26.102Z,12.70
2023-05-23T23:13:54.609Z,12.60
2023-05-23T23:16:22.554Z,12.50
2023-05-23T23:18:52.362Z,12.50
2023-05-23T23:21:20.774Z,12.40
2023-05-23T23:23:48.896Z,12.30
2023-05-23T23:26:16.512Z,12.20
2023-05-23T23:28:46.146Z,12.10
2023-05-23T23:31:13.898Z,12.10
2023-05-23T23:33:42.216Z,12.00
2023-05-23T23:36:25.258Z,12.00
2023-05-23T23:38:58.435Z,11.90
2023-05-23T23:41:33.276Z,11.90
2023-05-23T23:44:06.662Z,11.80
2023-05-23T23:46:44.935Z,11.80
2023-05-23T23:49:16.686Z,11.70
2023-05-23T23:51:45.686Z,11.70
2023-05-23T23:54:22.065Z,11.70
2023-05-23T23:56:57.626Z,11.60
2023-05-23T23:59:25.384Z,11.50
